Time;durP1;ratioP1;P1;durP2;ratioP2;P2;SDS_P1;SDS_P2;PMS_P1;PMS_P2;Temp;Humidity;BMP_temperature;BMP_pressure;BME280_temperature;BME280_humidity;BME280_pressure;Samples;Min_cycle;Max_cycle;Signal;HPM_P1;HPM_P2
2022/09/13 00:01:48;;;;;;;2.20;1.40;;;;;;;;;;7392160;19;20003;-74
2022/09/13 00:04:13;;;;;;;1.75;1.40;;;;;;;;;;7395080;19;20013;-74
2022/09/13 00:06:38;;;;;;;2.00;1.80;;;;;;;;;;7391657;19;20070;-74
2022/09/13 00:09:05;;;;;;;3.13;1.00;;;;;;;;;;7397109;19;20010;-74
2022/09/13 00:11:30;;;;;;;2.03;1.10;;;;;;;;;;7396411;19;20474;-74
2022/09/13 00:13:56;;;;;;;1.33;1.23;;;;;;;;;;7395031;19;20018;-74
2022/09/13 00:16:24;;;;;;;2.45;0.90;;;;;;;;;;7395438;19;20070;-75
2022/09/13 00:18:51;;;;;;;1.05;0.70;;;;;;;;;;7398008;19;20018;-74
2022/09/13 00:21:18;;;;;;;2.42;1.52;;;;;;;;;;7396007;19;20011;-74
2022/09/13 00:23:52;;;;;;;1.42;0.77;;;;;;;;;;7391158;19;20016;-75
2022/09/13 00:26:26;;;;;;;1.10;1.05;;;;;;;;;;7395959;19;20477;-75
2022/09/13 00:28:54;;;;;;;0.98;0.80;;;;;;;;;;7395078;19;20494;-74
2022/09/13 00:31:22;;;;;;;1.10;0.90;;;;;;;;;;7393346;19;20003;-74
2022/09/13 00:33:48;;;;;;;3.15;1.05;;;;;;;;;;7394542;19;20108;-74
2022/09/13 00:36:16;;;;;;;1.77;1.20;;;;;;;;;;7394956;19;20473;-75
2022/09/13 00:38:43;;;;;;;4.38;1.50;;;;;;;;;;7395186;19;20070;-75
2022/09/13 00:41:14;;;;;;;2.42;1.35;;;;;;;;;;7392577;19;20021;-74
2022/09/13 00:43:41;;;;;;;2.15;1.33;;;;;;;;;;7392527;19;20006;-75
2022/09/13 00:46:07;;;;;;;1.45;1.08;;;;;;;;;;7394004;19;20010;-73
2022/09/13 00:48:35;;;;;;;1.25;1.00;;;;;;;;;;7393753;19;20002;-74
2022/09/13 00:51:02;;;;;;;1.70;1.05;;;;;;;;;;7394797;19;20107;-74
2022/09/13 00:53:32;;;;;;;1.45;1.17;;;;;;;;;;7391822;19;20022;-75
2022/09/13 00:56:08;;;;;;;1.70;1.40;;;;;;;;;;7394908;19;20017;-74
2022/09/13 00:58:39;;;;;;;4.97;1.30;;;;;;;;;;7395361;19;20011;-74
2022/09/13 01:01:08;;;;;;;1.55;1.10;;;;;;;;;;7393513;19;20021;-75
2022/09/13 01:03:34;;;;;;;1.75;1.13;;;;;;;;;;7392496;19;20066;-74
2022/09/13 01:06:06;;;;;;;2.03;1.20;;;;;;;;;;7393099;19;20003;-74
2022/09/13 01:08:35;;;;;;;1.40;1.15;;;;;;;;;;7396805;19;20082;-74
2022/09/13 01:11:03;;;;;;;1.48;1.17;;;;;;;;;;7394465;19;20030;-74
2022/09/13 01:13:31;;;;;;;1.40;1.10;;;;;;;;;;7389968;19;20017;-74
2022/09/13 01:16:01;;;;;;;1.95;1.20;;;;;;;;;;7394123;19;20142;-74
2022/09/13 01:18:26;;;;;;;1.20;1.08;;;;;;;;;;7393249;19;20006;-75
2022/09/13 01:20:53;;;;;;;1.40;1.02;;;;;;;;;;7396340;19;20007;-74
2022/09/13 01:23:43;;;;;;;2.05;1.13;;;;;;;;;;7393511;19;20035;-74
2022/09/13 01:26:33;;;;;;;2.35;1.35;;;;;;;;;;7393524;19;20053;-74
2022/09/13 01:29:16;;;;;;;2.55;1.42;;;;;;;;;;7392500;19;20006;-74
2022/09/13 01:32:06;;;;;;;0.85;0.85;;;;;;;;;;7395284;19;20070;-74
2022/09/13 01:35:12;;;;;;;1.10;1.02;;;;;;;;;;7395655;19;20522;-74
2022/09/13 01:37:53;;;;;;;1.75;1.10;;;;;;;;;;7393953;19;20026;-74
2022/09/13 01:40:47;;;;;;;1.27;1.17;;;;;;;;;;7395761;19;20006;-74
2022/09/13 01:43:46;;;;;;;2.00;1.10;;;;;;;;;;7392912;19;20009;-74
2022/09/13 01:46:17;;;;;;;1.25;1.15;;;;;;;;;;7390044;19;20015;-73
2022/09/13 01:48:55;;;;;;;1.08;0.75;;;;;;;;;;7395811;19;20014;-74
2022/09/13 01:51:32;;;;;;;1.60;1.20;;;;;;;;;;7395005;19;20150;-74
2022/09/13 01:54:10;;;;;;;3.88;1.63;;;;;;;;;;7394217;19;20006;-74
2022/09/13 01:56:54;;;;;;;2.17;1.38;;;;;;;;;;7395385;19;19995;-74
2022/09/13 01:59:27;;;;;;;1.55;1.23;;;;;;;;;;7396126;19;20011;-74
2022/09/13 02:01:53;;;;;;;1.60;1.10;;;;;;;;;;7393247;19;20006;-74
2022/09/13 02:04:24;;;;;;;2.10;0.82;;;;;;;;;;7381902;19;20027;-74
2022/09/13 02:06:59;;;;;;;0.95;0.82;;;;;;;;;;7394293;19;20026;-74
2022/09/13 02:09:26;;;;;;;;;;;;;;;;;;7392044;19;19994;-74
2022/09/13 02:11:58;;;;;;;2.17;1.20;;;;;;;;;;7392163;19;19914;-74
2022/09/13 02:14:30;;;;;;;2.58;1.33;;;;;;;;;;7393631;19;20022;-74
2022/09/13 02:17:03;;;;;;;1.52;1.30;;;;;;;;;;7393096;19;20532;-74
2022/09/13 02:19:42;;;;;;;1.70;1.30;;;;;;;;;;7395330;19;19999;-74
2022/09/13 02:22:12;;;;;;;1.35;1.25;;;;;;;;;;7394640;19;20098;-75
2022/09/13 02:25:01;;;;;;;1.63;1.20;;;;;;;;;;7393468;19;20003;-74
2022/09/13 02:27:30;;;;;;;1.83;1.20;;;;;;;;;;7389734;19;20010;-74
2022/09/13 02:30:01;;;;;;;3.40;1.58;;;;;;;;;;7393962;19;20010;-74
2022/09/13 02:32:36;;;;;;;1.50;1.23;;;;;;;;;;7391894;19;20017;-74
2022/09/13 02:35:12;;;;;;;1.63;1.40;;;;;;;;;;7393046;19;20002;-75
2022/09/13 02:37:40;;;;;;;2.58;1.35;;;;;;;;;;7390537;19;20014;-74
2022/09/13 02:40:16;;;;;;;4.35;1.50;;;;;;;;;;7392498;19;20074;-74
2022/09/13 02:42:52;;;;;;;2.30;1.35;;;;;;;;;;7391635;19;20018;-74
2022/09/13 02:45:20;;;;;;;3.13;1.38;;;;;;;;;;7392734;19;19991;-75
2022/09/13 02:48:03;;;;;;;1.85;1.20;;;;;;;;;;7391296;19;20494;-74
2022/09/13 02:50:58;;;;;;;1.63;1.40;;;;;;;;;;7388479;19;19999;-74
2022/09/13 02:53:34;;;;;;;1.23;1.13;;;;;;;;;;7390470;19;20089;-74
2022/09/13 02:56:06;;;;;;;1.88;1.02;;;;;;;;;;7392073;19;20010;-75
2022/09/13 02:58:51;;;;;;;1.88;1.30;;;;;;;;;;7392661;19;20023;-74
2022/09/13 03:01:17;;;;;;;1.83;1.25;;;;;;;;;;7390551;19;20385;-74
2022/09/13 03:03:43;;;;;;;2.28;1.10;;;;;;;;;;7389974;19;20010;-74
2022/09/13 03:06:09;;;;;;;1.88;1.40;;;;;;;;;;7384166;19;20544;-70
2022/09/13 03:08:37;;;;;;;1.33;1.23;;;;;;;;;;7387172;19;20021;-70
2022/09/13 03:11:22;;;;;;;4.72;1.60;;;;;;;;;;7386170;19;20006;-70
2022/09/13 03:14:03;;;;;;;2.88;1.40;;;;;;;;;;7386546;19;20014;-70
2022/09/13 03:16:50;;;;;;;3.53;1.45;;;;;;;;;;7390226;19;20013;-69
2022/09/13 03:19:54;;;;;;;2.67;1.20;;;;;;;;;;7391979;19;20010;-70
2022/09/13 03:22:47;;;;;;;1.27;1.17;;;;;;;;;;7385888;19;20023;-69
2022/09/13 03:25:41;;;;;;;1.50;1.27;;;;;;;;;;7391296;19;20044;-70
2022/09/13 03:28:28;;;;;;;0.80;0.75;;;;;;;;;;7391394;19;20006;-70
2022/09/13 03:31:08;;;;;;;1.65;1.13;;;;;;;;;;7391339;19;20090;-70
2022/09/13 03:33:45;;;;;;;1.55;1.10;;;;;;;;;;7390617;19;20002;-70
2022/09/13 03:36:35;;;;;;;1.05;0.95;;;;;;;;;;7391940;19;20469;-70
2022/09/13 03:39:12;;;;;;;0.80;0.65;;;;;;;;;;7398266;19;20018;-69
2022/09/13 03:41:44;;;;;;;1.55;0.88;;;;;;;;;;7397115;19;20017;-70
2022/09/13 03:44:14;;;;;;;1.13;0.68;;;;;;;;;;7397380;19;19995;-70
2022/09/13 03:46:46;;;;;;;3.63;1.05;;;;;;;;;;7395081;19;20400;-70
2022/09/13 03:49:14;;;;;;;2.75;0.73;;;;;;;;;;7398866;19;20010;-70
2022/09/13 03:51:42;;;;;;;1.23;1.00;;;;;;;;;;7397642;19;20031;-70
2022/09/13 03:54:22;;;;;;;1.98;1.10;;;;;;;;;;7397326;19;20003;-70
2022/09/13 03:57:13;;;;;;;2.47;0.85;;;;;;;;;;7396911;19;20015;-70
2022/09/13 03:59:44;;;;;;;1.30;1.20;;;;;;;;;;7398675;19;20015;-70
2022/09/13 04:02:10;;;;;;;1.58;0.93;;;;;;;;;;7398432;19;20029;-70
2022/09/13 04:04:36;;;;;;;1.10;1.00;;;;;;;;;;7396447;19;20007;-70
2022/09/13 04:07:03;;;;;;;1.48;0.95;;;;;;;;;;7396826;19;20016;-70
2022/09/13 04:09:31;;;;;;;1.15;0.80;;;;;;;;;;7396036;19;20086;-70
2022/09/13 04:11:56;;;;;;;2.17;0.90;;;;;;;;;;7396186;19;20010;-70
2022/09/13 04:14:25;;;;;;;4.88;0.82;;;;;;;;;;7397851;19;20014;-70
2022/09/13 04:16:50;;;;;;;1.30;1.10;;;;;;;;;;7395061;19;20124;-70
2022/09/13 04:19:19;;;;;;;3.33;0.90;;;;;;;;;;7395970;19;20070;-70
2022/09/13 04:21:52;;;;;;;1.02;1.00;;;;;;;;;;7396041;19;20471;-70
2022/09/13 04:24:18;;;;;;;0.93;0.82;;;;;;;;;;7394837;19;20039;-70
2022/09/13 04:26:48;;;;;;;3.42;0.95;;;;;;;;;;7392471;19;20006;-71
2022/09/13 04:29:13;;;;;;;1.40;0.98;;;;;;;;;;7397464;19;20045;-70
2022/09/13 04:31:39;;;;;;;2.22;1.00;;;;;;;;;;7387817;19;20003;-70
2022/09/13 04:34:05;;;;;;;1.05;0.95;;;;;;;;;;7393979;19;20340;-72
2022/09/13 04:36:30;;;;;;;1.88;1.00;;;;;;;;;;7396321;19;20017;-70
2022/09/13 04:38:56;;;;;;;2.00;1.50;;;;;;;;;;7396195;19;20010;-70
2022/09/13 04:41:21;;;;;;;1.60;1.15;;;;;;;;;;7393771;19;20010;-70
2022/09/13 04:43:50;;;;;;;2.25;1.50;;;;;;;;;;7397723;19;20493;-70
2022/09/13 04:46:16;;;;;;;2.22;1.02;;;;;;;;;;7391944;19;20003;-70
2022/09/13 04:48:42;;;;;;;2.20;1.20;;;;;;;;;;7397517;19;20003;-70
2022/09/13 04:51:08;;;;;;;1.58;1.15;;;;;;;;;;7395282;19;20002;-70
2022/09/13 04:53:34;;;;;;;1.40;1.15;;;;;;;;;;7394572;19;20471;-70
2022/09/13 04:56:04;;;;;;;4.90;1.00;;;;;;;;;;7394553;19;20010;-70
2022/09/13 04:58:30;;;;;;;0.75;0.75;;;;;;;;;;7397723;19;20014;-70
2022/09/13 05:01:03;;;;;;;1.23;0.77;;;;;;;;;;7394205;19;20014;-69
2022/09/13 05:03:30;;;;;;;0.65;0.52;;;;;;;;;;7391886;19;20047;-70
2022/09/13 05:08:30;;;;;;;0.60;0.60;;;;;;;;;;7378986;19;20014;-71
2022/09/13 05:10:57;;;;;;;0.63;0.63;;;;;;;;;;7388780;19;20023;-72
2022/09/13 05:13:24;;;;;;;1.63;1.10;;;;;;;;;;7388543;19;20027;-71
2022/09/13 05:15:53;;;;;;;2.03;1.20;;;;;;;;;;7394208;19;20007;-71
2022/09/13 05:18:18;;;;;;;1.63;1.00;;;;;;;;;;7382586;19;20338;-72
2022/09/13 05:20:44;;;;;;;1.58;1.05;;;;;;;;;;7389128;19;20453;-71
2022/09/13 05:23:10;;;;;;;1.33;1.23;;;;;;;;;;7382627;19;20021;-71
2022/09/13 05:25:35;;;;;;;1.70;1.25;;;;;;;;;;7396005;19;20002;-71
2022/09/13 05:28:01;;;;;;;1.50;1.38;;;;;;;;;;7389181;19;20003;-72
2022/09/13 05:30:26;;;;;;;2.20;1.40;;;;;;;;;;7388411;19;20010;-72
2022/09/13 05:32:52;;;;;;;1.42;1.10;;;;;;;;;;7392183;19;20086;-72
2022/09/13 05:35:17;;;;;;;5.78;1.20;;;;;;;;;;7395562;19;20478;-72
2022/09/13 05:37:42;;;;;;;3.30;1.30;;;;;;;;;;7391251;19;20009;-72
2022/09/13 05:40:08;;;;;;;1.20;1.10;;;;;;;;;;7392092;19;20026;-72
2022/09/13 05:42:33;;;;;;;1.48;1.02;;;;;;;;;;7395010;19;20011;-73
2022/09/13 05:44:58;;;;;;;3.58;1.08;;;;;;;;;;7384116;19;20007;-73
2022/09/13 05:47:24;;;;;;;2.10;1.05;;;;;;;;;;7393462;19;20422;-72
2022/09/13 05:49:49;;;;;;;3.83;1.27;;;;;;;;;;7393943;19;20035;-72
2022/09/13 05:52:14;;;;;;;1.88;1.20;;;;;;;;;;7393228;19;20002;-72
2022/09/13 05:54:40;;;;;;;1.25;0.90;;;;;;;;;;7394244;19;20395;-72
2022/09/13 05:57:05;;;;;;;0.90;0.90;;;;;;;;;;7396378;19;20003;-73
2022/09/13 05:59:30;;;;;;;1.48;1.20;;;;;;;;;;7389513;19;20002;-72
2022/09/13 06:01:56;;;;;;;1.42;1.00;;;;;;;;;;7387235;19;20043;-71
2022/09/13 06:04:22;;;;;;;2.65;1.42;;;;;;;;;;7391346;19;20019;-70
2022/09/13 06:06:48;;;;;;;1.27;0.98;;;;;;;;;;7390827;19;20035;-70
2022/09/13 06:09:13;;;;;;;1.63;1.15;;;;;;;;;;7391483;19;20006;-71
2022/09/13 06:11:39;;;;;;;2.15;1.20;;;;;;;;;;7391858;19;20506;-71
2022/09/13 06:14:04;;;;;;;2.05;1.30;;;;;;;;;;7391574;19;20369;-72
2022/09/13 06:16:29;;;;;;;1.73;1.33;;;;;;;;;;7390481;19;20011;-71
2022/09/13 06:18:54;;;;;;;2.58;1.10;;;;;;;;;;7393580;19;20458;-73
2022/09/13 06:21:21;;;;;;;2.28;1.48;;;;;;;;;;7394041;19;20015;-73
2022/09/13 06:23:52;;;;;;;1.48;1.13;;;;;;;;;;7391863;19;20002;-72
2022/09/13 06:26:21;;;;;;;1.73;1.50;;;;;;;;;;7386740;19;20489;-72
2022/09/13 06:28:48;;;;;;;1.52;1.23;;;;;;;;;;7391947;19;20013;-76
2022/09/13 06:31:14;;;;;;;1.75;1.25;;;;;;;;;;7392126;19;20601;-72
2022/09/13 06:33:42;;;;;;;1.65;1.33;;;;;;;;;;7384745;19;20017;-71
2022/09/13 06:36:10;;;;;;;2.40;1.73;;;;;;;;;;7387102;19;20013;-71
2022/09/13 06:38:36;;;;;;;3.38;1.27;;;;;;;;;;7389565;19;20454;-71
2022/09/13 06:41:12;;;;;;;3.30;1.55;;;;;;;;;;7389324;19;20014;-73
2022/09/13 06:43:38;;;;;;;2.28;1.27;;;;;;;;;;7389799;19;20018;-72
2022/09/13 06:46:06;;;;;;;4.57;1.55;;;;;;;;;;7390867;19;20033;-71
2022/09/13 06:48:37;;;;;;;2.38;1.38;;;;;;;;;;7393018;19;20010;-72
2022/09/13 06:51:05;;;;;;;2.67;1.42;;;;;;;;;;7386840;19;22049;-72
2022/09/13 06:53:30;;;;;;;2.05;1.38;;;;;;;;;;7389324;19;20360;-72
2022/09/13 06:56:05;;;;;;;1.70;1.33;;;;;;;;;;7394728;19;20010;-72
2022/09/13 06:58:31;;;;;;;1.80;1.33;;;;;;;;;;7393948;19;20059;-73
2022/09/13 07:01:13;;;;;;;1.25;1.13;;;;;;;;;;7392784;19;20007;-72
2022/09/13 07:03:42;;;;;;;2.08;1.35;;;;;;;;;;7383888;19;20003;-72
2022/09/13 07:06:27;;;;;;;4.55;1.05;;;;;;;;;;7392517;19;20009;-72
2022/09/13 07:08:54;;;;;;;1.73;1.27;;;;;;;;;;7391918;19;20169;-72
2022/09/13 07:11:22;;;;;;;3.35;1.20;;;;;;;;;;7388403;19;20317;-72
2022/09/13 07:13:52;;;;;;;1.23;1.13;;;;;;;;;;7392074;19;19998;-72
2022/09/13 07:16:19;;;;;;;1.13;1.02;;;;;;;;;;7390546;19;20006;-73
2022/09/13 07:18:49;;;;;;;3.67;1.23;;;;;;;;;;7393052;19;20344;-73
2022/09/13 07:21:15;;;;;;;1.40;1.00;;;;;;;;;;7394370;19;20018;-72
2022/09/13 07:23:40;;;;;;;2.45;0.90;;;;;;;;;;7390967;19;20010;-73
2022/09/13 07:26:06;;;;;;;0.63;0.60;;;;;;;;;;7393280;19;20066;-72
2022/09/13 07:28:35;;;;;;;1.88;0.80;;;;;;;;;;7391667;19;20027;-72
2022/09/13 07:31:11;;;;;;;0.60;0.60;;;;;;;;;;7390458;19;20003;-72
2022/09/13 07:33:38;;;;;;;0.68;0.63;;;;;;;;;;7392185;19;19995;-72
2022/09/13 07:36:07;;;;;;;0.60;0.60;;;;;;;;;;7390346;19;20014;-73
2022/09/13 07:38:34;;;;;;;1.52;0.70;;;;;;;;;;7390752;19;20445;-73
2022/09/13 07:41:01;;;;;;;1.50;0.77;;;;;;;;;;7386305;19;20007;-73
2022/09/13 07:43:27;;;;;;;1.95;0.65;;;;;;;;;;7391096;19;20007;-72
2022/09/13 07:46:01;;;;;;;3.53;1.05;;;;;;;;;;7393412;19;20010;-73
2022/09/13 07:48:27;;;;;;;1.33;0.80;;;;;;;;;;7390128;19;20114;-73
2022/09/13 07:51:10;;;;;;;0.80;0.70;;;;;;;;;;7389406;19;20011;-73
2022/09/13 07:53:37;;;;;;;1.48;0.73;;;;;;;;;;7383895;19;20003;-73
2022/09/13 07:56:07;;;;;;;0.85;0.70;;;;;;;;;;7388423;19;20010;-73
2022/09/13 07:58:34;;;;;;;3.92;0.75;;;;;;;;;;7389145;19;19998;-73
2022/09/13 08:01:11;;;;;;;1.02;0.60;;;;;;;;;;7387158;19;20462;-74
2022/09/13 08:03:37;;;;;;;0.70;0.60;;;;;;;;;;7386028;19;20002;-78
2022/09/13 08:06:04;;;;;;;3.40;0.60;;;;;;;;;;7389780;19;20465;-74
2022/09/13 08:08:30;;;;;;;1.95;0.50;;;;;;;;;;7388221;19;20042;-74
2022/09/13 08:10:56;;;;;;;0.70;0.60;;;;;;;;;;7385582;19;20493;-74
2022/09/13 08:13:22;;;;;;;5.15;0.50;;;;;;;;;;7384391;19;20009;-74
2022/09/13 08:15:48;;;;;;;3.45;0.80;;;;;;;;;;7384505;19;20010;-75
2022/09/13 08:18:14;;;;;;;0.77;0.50;;;;;;;;;;7389029;19;20352;-75
2022/09/13 08:20:39;;;;;;;0.30;0.30;;;;;;;;;;7388206;19;20018;-70
2022/09/13 08:23:06;;;;;;;0.80;0.60;;;;;;;;;;7389325;19;20354;-73
2022/09/13 08:25:33;;;;;;;0.60;0.60;;;;;;;;;;7389797;19;20010;-71
2022/09/13 08:28:00;;;;;;;0.50;0.50;;;;;;;;;;7396296;19;20027;-72
2022/09/13 08:30:31;;;;;;;0.50;0.50;;;;;;;;;;7392718;19;20077;-73
2022/09/13 08:32:57;;;;;;;1.52;0.57;;;;;;;;;;7393173;19;20112;-75
2022/09/13 08:35:23;;;;;;;1.10;0.60;;;;;;;;;;7398075;19;20030;-76
2022/09/13 08:37:48;;;;;;;2.17;0.80;;;;;;;;;;7392126;19;20010;-80
2022/09/13 08:40:14;;;;;;;0.55;0.40;;;;;;;;;;7393291;19;20462;-79
2022/09/13 08:43:04;;;;;;;1.70;0.70;;;;;;;;;;7394738;19;20014;-77
2022/09/13 08:45:30;;;;;;;1.08;0.70;;;;;;;;;;7393003;19;20011;-73
2022/09/13 08:48:10;;;;;;;1.85;0.60;;;;;;;;;;7395325;19;20019;-73
2022/09/13 08:50:37;;;;;;;1.30;0.60;;;;;;;;;;7393599;19;20014;-72
2022/09/13 08:53:17;;;;;;;1.20;0.50;;;;;;;;;;7392020;19;20010;-77
2022/09/13 08:56:12;;;;;;;0.73;0.47;;;;;;;;;;7393224;19;20035;-73
2022/09/13 08:59:02;;;;;;;0.38;0.38;;;;;;;;;;7396480;19;20044;-73
2022/09/13 09:02:01;;;;;;;0.90;0.70;;;;;;;;;;7395896;19;20478;-73
2022/09/13 09:04:28;;;;;;;1.10;0.60;;;;;;;;;;7388535;19;20007;-73
2022/09/13 09:07:10;;;;;;;0.93;0.80;;;;;;;;;;7391593;19;20006;-73
2022/09/13 09:09:53;;;;;;;0.85;0.63;;;;;;;;;;7392610;19;20031;-73
2022/09/13 09:12:44;;;;;;;3.30;0.50;;;;;;;;;;7395256;19;20010;-73
2022/09/13 09:15:18;;;;;;;0.57;0.57;;;;;;;;;;7396910;19;20001;-73
2022/09/13 09:17:56;;;;;;;0.70;0.70;;;;;;;;;;7392111;19;20313;-73
2022/09/13 09:20:39;;;;;;;0.50;0.40;;;;;;;;;;7395078;19;20014;-73
2022/09/13 09:23:13;;;;;;;1.10;0.50;;;;;;;;;;7389941;19;20007;-73
2022/09/13 09:25:38;;;;;;;4.32;0.65;;;;;;;;;;7394969;19;20010;-73
2022/09/13 09:28:17;;;;;;;0.57;0.50;;;;;;;;;;7394511;19;20025;-73
2022/09/13 09:31:07;;;;;;;0.60;0.60;;;;;;;;;;7391114;19;20010;-73
2022/09/13 09:33:51;;;;;;;1.08;0.40;;;;;;;;;;7387212;19;20023;-73
2022/09/13 09:36:30;;;;;;;2.17;0.47;;;;;;;;;;7388866;19;20648;-73
2022/09/13 09:38:56;;;;;;;1.20;0.45;;;;;;;;;;7393190;19;20006;-73
2022/09/13 09:41:31;;;;;;;0.40;0.40;;;;;;;;;;7391361;19;19995;-73
2022/09/13 09:44:17;;;;;;;1.13;0.60;;;;;;;;;;7388664;19;20014;-73
2022/09/13 09:46:47;;;;;;;0.80;0.70;;;;;;;;;;7388938;19;20093;-74
2022/09/13 09:52:05;;;;;;;0.95;0.50;;;;;;;;;;7393211;19;20027;-74
2022/09/13 09:54:33;;;;;;;1.08;0.50;;;;;;;;;;7392197;19;20035;-74
2022/09/13 09:57:00;;;;;;;1.55;0.77;;;;;;;;;;7392535;19;20015;-74
2022/09/13 09:59:31;;;;;;;1.90;0.85;;;;;;;;;;7389290;19;20533;-71
2022/09/13 10:01:58;;;;;;;2.15;0.77;;;;;;;;;;7390621;19;20010;-73
2022/09/13 10:04:24;;;;;;;1.50;0.73;;;;;;;;;;7392179;19;20021;-74
2022/09/13 10:07:06;;;;;;;1.00;0.60;;;;;;;;;;7391043;19;20010;-73
2022/09/13 10:09:31;;;;;;;5.38;0.60;;;;;;;;;;7390355;19;20003;-73
2022/09/13 10:11:58;;;;;;;0.80;0.45;;;;;;;;;;7394070;19;20002;-73
2022/09/13 10:14:33;;;;;;;3.42;0.70;;;;;;;;;;7385356;19;20353;-73
2022/09/13 10:17:22;;;;;;;0.82;0.50;;;;;;;;;;7389708;19;20014;-71
2022/09/13 10:19:54;;;;;;;1.10;0.50;;;;;;;;;;7390137;19;20006;-71
2022/09/13 10:22:21;;;;;;;1.38;0.40;;;;;;;;;;7392931;19;20035;-71
2022/09/13 10:24:49;;;;;;;0.77;0.50;;;;;;;;;;7390794;19;20701;-71
2022/09/13 10:27:32;;;;;;;0.82;0.75;;;;;;;;;;7390862;19;20006;-71
2022/09/13 10:30:00;;;;;;;0.50;0.50;;;;;;;;;;7391523;19;20014;-73
2022/09/13 10:32:27;;;;;;;3.28;0.70;;;;;;;;;;7390728;19;20010;-71
2022/09/13 10:34:54;;;;;;;1.60;0.52;;;;;;;;;;7391095;19;20357;-72
2022/09/13 10:37:24;;;;;;;0.95;0.50;;;;;;;;;;7390592;19;20003;-71
2022/09/13 10:40:00;;;;;;;0.50;0.50;;;;;;;;;;7390231;19;20013;-71
2022/09/13 10:42:27;;;;;;;0.30;0.30;;;;;;;;;;7387946;19;20124;-71
2022/09/13 10:44:56;;;;;;;1.55;0.52;;;;;;;;;;7387481;19;20408;-74
2022/09/13 10:47:26;;;;;;;1.40;0.57;;;;;;;;;;7391636;19;20017;-72
2022/09/13 10:49:53;;;;;;;0.47;0.47;;;;;;;;;;7389817;19;20014;-71
2022/09/13 10:52:29;;;;;;;1.85;0.73;;;;;;;;;;7388943;19;20014;-74
2022/09/13 10:55:03;;;;;;;1.00;0.50;;;;;;;;;;7389991;19;20034;-72
2022/09/13 10:57:36;;;;;;;1.85;0.60;;;;;;;;;;7388457;19;20073;-71
2022/09/13 11:00:07;;;;;;;1.27;0.50;;;;;;;;;;7391505;19;19998;-71
2022/09/13 11:02:43;;;;;;;0.40;0.40;;;;;;;;;;7386539;19;20014;-71
2022/09/13 11:05:20;;;;;;;0.85;0.50;;;;;;;;;;7385070;19;20334;-72
2022/09/13 11:07:51;;;;;;;0.75;0.47;;;;;;;;;;7388718;19;20030;-71
2022/09/13 11:10:38;;;;;;;1.33;0.50;;;;;;;;;;7390741;19;20015;-74
2022/09/13 11:13:20;;;;;;;2.35;0.60;;;;;;;;;;7391653;19;20748;-72
2022/09/13 11:16:17;;;;;;;2.17;0.77;;;;;;;;;;7392908;19;20006;-72
2022/09/13 11:19:01;;;;;;;0.40;0.30;;;;;;;;;;7389177;19;20077;-71
2022/09/13 11:22:13;;;;;;;0.50;0.50;;;;;;;;;;7390950;19;20098;-72
2022/09/13 11:24:39;;;;;;;1.02;0.55;;;;;;;;;;7390215;19;20057;-73
2022/09/13 11:27:24;;;;;;;2.75;0.60;;;;;;;;;;7389862;19;20748;-73
2022/09/13 11:30:19;;;;;;;0.40;0.40;;;;;;;;;;7390373;19;20030;-72
2022/09/13 11:32:56;;;;;;;1.65;0.60;;;;;;;;;;7389999;19;20091;-73
2022/09/13 11:35:27;;;;;;;0.75;0.50;;;;;;;;;;7393237;19;20018;-74
2022/09/13 11:38:16;;;;;;;0.60;0.60;;;;;;;;;;7392578;19;20342;-73
2022/09/13 11:41:01;;;;;;;0.55;0.45;;;;;;;;;;7391471;19;20030;-76
2022/09/13 11:43:32;;;;;;;0.85;0.43;;;;;;;;;;7388314;19;20011;-76
2022/09/13 11:46:06;;;;;;;0.45;0.45;;;;;;;;;;7391806;19;20010;-72
2022/09/13 11:48:44;;;;;;;0.88;0.50;;;;;;;;;;7386136;19;20014;-72
2022/09/13 11:51:27;;;;;;;2.25;0.70;;;;;;;;;;7391669;19;20017;-73
2022/09/13 11:54:20;;;;;;;1.20;0.75;;;;;;;;;;7384563;19;20017;-77
2022/09/13 11:56:53;;;;;;;2.83;0.73;;;;;;;;;;7391117;19;20007;-73
2022/09/13 11:59:42;;;;;;;0.50;0.50;;;;;;;;;;7395489;19;20015;-73
2022/09/13 12:02:28;;;;;;;1.55;0.70;;;;;;;;;;7395388;19;20026;-74
2022/09/13 12:05:04;;;;;;;1.73;0.60;;;;;;;;;;7392535;19;20372;-73
2022/09/13 12:07:47;;;;;;;1.95;0.63;;;;;;;;;;7397909;19;19999;-73
2022/09/13 12:10:38;;;;;;;1.20;0.40;;;;;;;;;;7395000;19;20074;-74
2022/09/13 12:13:06;;;;;;;0.70;0.70;;;;;;;;;;7395462;19;20006;-73
2022/09/13 12:15:40;;;;;;;0.40;0.40;;;;;;;;;;7396505;19;20020;-74
2022/09/13 12:18:46;;;;;;;0.77;0.53;;;;;;;;;;7396412;19;20027;-75
2022/09/13 12:21:19;;;;;;;1.23;0.60;;;;;;;;;;7387968;19;20322;-76
2022/09/13 12:23:59;;;;;;;3.40;0.50;;;;;;;;;;7387422;19;20014;-76
2022/09/13 12:26:46;;;;;;;2.00;0.70;;;;;;;;;;7396388;19;20006;-75
2022/09/13 12:29:49;;;;;;;1.10;0.40;;;;;;;;;;7393490;19;21304;-76
2022/09/13 12:32:15;;;;;;;0.65;0.60;;;;;;;;;;7393735;19;20021;-78
2022/09/13 12:34:48;;;;;;;0.60;0.60;;;;;;;;;;7398875;19;20371;-76
2022/09/13 12:37:47;;;;;;;0.52;0.50;;;;;;;;;;7396614;19;20041;-76
2022/09/13 12:40:41;;;;;;;3.80;0.90;;;;;;;;;;7386545;19;20010;-77
2022/09/13 12:43:22;;;;;;;1.17;0.50;;;;;;;;;;7393815;19;20039;-79
2022/09/13 12:45:57;;;;;;;1.98;0.60;;;;;;;;;;7393472;19;20017;-77
2022/09/13 12:48:55;;;;;;;4.15;0.40;;;;;;;;;;7395496;19;20007;-78
2022/09/13 12:51:39;;;;;;;0.50;0.50;;;;;;;;;;7393338;19;20033;-77
2022/09/13 12:54:16;;;;;;;0.52;0.50;;;;;;;;;;7394679;19;20006;-76
2022/09/13 12:57:03;;;;;;;1.15;0.70;;;;;;;;;;7396132;19;20010;-76
2022/09/13 12:59:34;;;;;;;0.93;0.50;;;;;;;;;;7396430;19;20018;-78
2022/09/13 13:02:02;;;;;;;5.95;0.60;;;;;;;;;;7396100;19;20007;-76
2022/09/13 13:04:31;;;;;;;0.75;0.50;;;;;;;;;;7394329;19;20037;-76
2022/09/13 13:07:02;;;;;;;1.45;1.00;;;;;;;;;;7398992;19;19995;-77
2022/09/13 13:09:41;;;;;;;0.50;0.50;;;;;;;;;;7391488;19;20007;-76
2022/09/13 13:12:09;;;;;;;3.45;0.50;;;;;;;;;;7391824;19;20006;-75
2022/09/13 13:14:37;;;;;;;0.50;0.50;;;;;;;;;;7392863;19;20675;-76
2022/09/13 13:17:36;;;;;;;1.52;0.70;;;;;;;;;;7396741;19;20006;-75
2022/09/13 13:20:39;;;;;;;0.63;0.40;;;;;;;;;;7393770;19;20003;-75
2022/09/13 13:23:30;;;;;;;0.52;0.50;;;;;;;;;;7390012;19;20654;-76
2022/09/13 13:25:59;;;;;;;0.60;0.50;;;;;;;;;;7393384;19;20010;-77
2022/09/13 13:28:43;;;;;;;0.40;0.40;;;;;;;;;;7389281;19;20026;-77
2022/09/13 13:31:28;;;;;;;4.22;0.40;;;;;;;;;;7393603;19;20005;-76
2022/09/13 13:33:57;;;;;;;;;;;;;;;;;;7387716;19;20073;-76
2022/09/13 13:36:40;;;;;;;2.15;0.70;;;;;;;;;;7392997;19;19923;-77
2022/09/13 13:39:12;;;;;;;0.40;0.40;;;;;;;;;;7385210;19;20042;-77
2022/09/13 13:41:43;;;;;;;0.35;0.35;;;;;;;;;;7393191;19;20281;-76
2022/09/13 13:44:14;;;;;;;2.08;0.45;;;;;;;;;;7393280;19;20011;-76
2022/09/13 13:46:41;;;;;;;0.55;0.40;;;;;;;;;;7390157;19;20003;-76
2022/09/13 13:49:31;;;;;;;0.70;0.65;;;;;;;;;;7389856;19;20011;-75
2022/09/13 13:52:05;;;;;;;1.33;0.30;;;;;;;;;;7390978;19;20478;-76
2022/09/13 13:54:53;;;;;;;0.30;0.30;;;;;;;;;;7394062;19;20009;-75
2022/09/13 13:57:32;;;;;;;3.67;0.40;;;;;;;;;;7391918;19;20029;-79
2022/09/13 14:02:49;;;;;;;1.08;0.40;;;;;;;;;;7386394;19;20010;-77
2022/09/13 14:05:41;;;;;;;0.43;0.43;;;;;;;;;;7368483;19;20382;-77
2022/09/13 14:08:58;;;;;;;0.75;0.40;;;;;;;;;;7389390;19;20007;-78
2022/09/13 14:11:47;;;;;;;1.63;0.40;;;;;;;;;;7385542;19;20014;-77
2022/09/13 14:14:29;;;;;;;0.40;0.40;;;;;;;;;;7394546;19;20007;-77
2022/09/13 14:17:22;;;;;;;0.85;0.40;;;;;;;;;;7395209;19;20010;-77
2022/09/13 14:19:54;;;;;;;0.30;0.30;;;;;;;;;;7392997;19;20004;-77
2022/09/13 14:22:27;;;;;;;0.90;0.40;;;;;;;;;;7389789;19;19995;-76
2022/09/13 14:25:19;;;;;;;0.30;0.30;;;;;;;;;;7391316;19;20013;-77
2022/09/13 14:27:46;;;;;;;1.20;0.50;;;;;;;;;;7393701;19;20002;-77
2022/09/13 14:30:17;;;;;;;0.50;0.50;;;;;;;;;;7393984;19;20010;-76
2022/09/13 14:32:47;;;;;;;1.08;0.50;;;;;;;;;;7396251;19;20017;-77
2022/09/13 14:35:29;;;;;;;2.58;1.00;;;;;;;;;;7391004;19;19995;-77
2022/09/13 14:38:08;;;;;;;2.20;0.55;;;;;;;;;;7394059;19;20469;-77
2022/09/13 14:40:33;;;;;;;0.93;0.60;;;;;;;;;;7393366;19;20024;-76
2022/09/13 14:42:59;;;;;;;0.22;0.22;;;;;;;;;;7396379;19;20404;-77
2022/09/13 14:45:32;;;;;;;6.68;0.75;;;;;;;;;;7389284;19;20013;-77
2022/09/13 14:48:13;;;;;;;0.57;0.57;;;;;;;;;;7388224;19;20007;-77
2022/09/13 14:50:46;;;;;;;0.40;0.40;;;;;;;;;;7391467;19;20381;-77
2022/09/13 14:53:17;;;;;;;0.55;0.30;;;;;;;;;;7389651;19;20023;-77
2022/09/13 14:55:48;;;;;;;0.30;0.30;;;;;;;;;;7391797;19;20014;-77
2022/09/13 14:58:19;;;;;;;0.40;0.38;;;;;;;;;;7393339;19;20102;-76
2022/09/13 15:00:57;;;;;;;0.50;0.30;;;;;;;;;;7391446;19;20010;-77
2022/09/13 15:03:23;;;;;;;0.55;0.43;;;;;;;;;;7390805;19;20077;-76
2022/09/13 15:05:56;;;;;;;0.73;0.43;;;;;;;;;;7394762;19;20002;-76
2022/09/13 15:08:31;;;;;;;1.95;0.47;;;;;;;;;;7393125;19;20017;-77
2022/09/13 15:10:57;;;;;;;0.40;0.40;;;;;;;;;;7392275;19;20006;-77
2022/09/13 15:13:22;;;;;;;0.30;0.28;;;;;;;;;;7390458;19;20019;-77
2022/09/13 15:15:48;;;;;;;0.57;0.40;;;;;;;;;;7393666;19;20006;-78
2022/09/13 15:18:19;;;;;;;0.73;0.43;;;;;;;;;;7392616;19;20023;-77
2022/09/13 15:20:50;;;;;;;0.68;0.43;;;;;;;;;;7390415;19;20022;-77
2022/09/13 15:23:19;;;;;;;0.60;0.57;;;;;;;;;;7393438;19;20021;-77
2022/09/13 15:25:53;;;;;;;0.90;0.57;;;;;;;;;;7392900;19;20014;-77
2022/09/13 15:28:31;;;;;;;0.38;0.38;;;;;;;;;;7393465;19;20017;-77
2022/09/13 15:30:59;;;;;;;2.42;0.45;;;;;;;;;;7389826;19;20018;-77